sensor_id;sensor_type;location;lat;lon;timestamp;temperature;humidity
20418;DHT22;10368;51.436;6.774;2023-04-06T02:09:55;7.70;68.70
20418;DHT22;10368;51.436;6.774;2023-04-06T02:12:22;5.00;93.00
20418;DHT22;10368;51.436;6.774;2023-04-06T02:14:50;4.90;92.90
20418;DHT22;10368;51.436;6.774;2023-04-06T02:17:17;4.80;93.10
20418;DHT22;10368;51.436;6.774;2023-04-06T02:19:44;4.90;93.30
20418;DHT22;10368;51.436;6.774;2023-04-06T02:22:12;4.80;93.10
20418;DHT22;10368;51.436;6.774;2023-04-06T02:24:38;4.80;92.90
20418;DHT22;10368;51.436;6.774;2023-04-06T02:27:05;4.90;93.30
20418;DHT22;10368;51.436;6.774;2023-04-06T02:29:32;4.90;93.00
20418;DHT22;10368;51.436;6.774;2023-04-06T02:31:59;4.70;93.30
20418;DHT22;10368;51.436;6.774;2023-04-06T02:34:26;4.80;93.10
20418;DHT22;10368;51.436;6.774;2023-04-06T02:36:53;4.70;93.20
20418;DHT22;10368;51.436;6.774;2023-04-06T02:39:21;4.60;93.20
20418;DHT22;10368;51.436;6.774;2023-04-06T02:41:47;4.60;93.40
20418;DHT22;10368;51.436;6.774;2023-04-06T02:44:14;4.70;93.10
20418;DHT22;10368;51.436;6.774;2023-04-06T02:46:41;4.60;93.30
20418;DHT22;10368;51.436;6.774;2023-04-06T02:49:08;4.60;93.60
20418;DHT22;10368;51.436;6.774;2023-04-06T02:51:35;4.60;93.30
20418;DHT22;10368;51.436;6.774;2023-04-06T02:54:02;4.60;93.60
20418;DHT22;10368;51.436;6.774;2023-04-06T02:56:29;4.60;93.80
20418;DHT22;10368;51.436;6.774;2023-04-06T02:58:56;4.60;94.00
20418;DHT22;10368;51.436;6.774;2023-04-06T03:01:23;4.60;94.10
20418;DHT22;10368;51.436;6.774;2023-04-06T03:03:50;4.50;94.30
20418;DHT22;10368;51.436;6.774;2023-04-06T03:06:17;4.60;94.50
20418;DHT22;10368;51.436;6.774;2023-04-06T03:08:44;4.50;95.00
20418;DHT22;10368;51.436;6.774;2023-04-06T03:11:11;4.50;94.80
20418;DHT22;10368;51.436;6.774;2023-04-06T03:13:38;4.50;94.70
20418;DHT22;10368;51.436;6.774;2023-04-06T03:16:06;4.60;94.90
20418;DHT22;10368;51.436;6.774;2023-04-06T03:18:33;4.50;94.60
20418;DHT22;10368;51.436;6.774;2023-04-06T03:21:00;4.60;94.40
20418;DHT22;10368;51.436;6.774;2023-04-06T03:23:27;4.50;94.60
20418;DHT22;10368;51.436;6.774;2023-04-06T03:25:54;4.50;94.40
20418;DHT22;10368;51.436;6.774;2023-04-06T03:28:21;4.50;94.60
20418;DHT22;10368;51.436;6.774;2023-04-06T03:30:49;4.50;94.40
20418;DHT22;10368;51.436;6.774;2023-04-06T03:33:15;4.50;94.50
20418;DHT22;10368;51.436;6.774;2023-04-06T03:35:42;4.50;94.80
20418;DHT22;10368;51.436;6.774;2023-04-06T03:38:12;4.40;94.70
20418;DHT22;10368;51.436;6.774;2023-04-06T03:40:39;4.50;94.80
20418;DHT22;10368;51.436;6.774;2023-04-06T03:43:06;4.40;94.90
20418;DHT22;10368;51.436;6.774;2023-04-06T08:11:48;4.50;95.30
20418;DHT22;10368;51.436;6.774;2023-04-06T08:14:15;8.30;79.80
20418;DHT22;10368;51.436;6.774;2023-04-06T08:16:43;8.30;80.60
20418;DHT22;10368;51.436;6.774;2023-04-06T08:19:09;8.40;79.00
20418;DHT22;10368;51.436;6.774;2023-04-06T08:21:37;8.40;78.50
20418;DHT22;10368;51.436;6.774;2023-04-06T08:24:06;8.50;78.40
20418;DHT22;10368;51.436;6.774;2023-04-06T08:26:33;8.50;78.60
20418;DHT22;10368;51.436;6.774;2023-04-06T08:29:00;8.60;77.30
20418;DHT22;10368;51.436;6.774;2023-04-06T08:31:28;8.60;77.50
20418;DHT22;10368;51.436;6.774;2023-04-06T08:33:55;8.70;76.30
20418;DHT22;10368;51.436;6.774;2023-04-06T08:36:22;8.90;75.50
20418;DHT22;10368;51.436;6.774;2023-04-06T08:38:49;8.90;75.30
20418;DHT22;10368;51.436;6.774;2023-04-06T08:41:17;8.90;75.20
20418;DHT22;10368;51.436;6.774;2023-04-06T08:43:50;9.10;75.10
20418;DHT22;10368;51.436;6.774;2023-04-06T08:46:18;9.20;74.40
20418;DHT22;10368;51.436;6.774;2023-04-06T08:48:45;9.30;74.20
20418;DHT22;10368;51.436;6.774;2023-04-06T08:51:15;9.30;73.80
20418;DHT22;10368;51.436;6.774;2023-04-06T08:53:42;9.40;73.10
20418;DHT22;10368;51.436;6.774;2023-04-06T08:56:09;9.60;74.10
20418;DHT22;10368;51.436;6.774;2023-04-06T08:58:39;10.00;72.30
20418;DHT22;10368;51.436;6.774;2023-04-06T09:01:08;9.90;72.10
20418;DHT22;10368;51.436;6.774;2023-04-06T09:03:39;10.00;71.30
20418;DHT22;10368;51.436;6.774;2023-04-06T09:06:09;10.00;71.00
20418;DHT22;10368;51.436;6.774;2023-04-06T09:08:39;10.10;70.20
20418;DHT22;10368;51.436;6.774;2023-04-06T09:11:07;10.30;69.30
20418;DHT22;10368;51.436;6.774;2023-04-06T09:13:51;10.30;68.70
20418;DHT22;10368;51.436;6.774;2023-04-06T09:16:18;10.50;68.70
20418;DHT22;10368;51.436;6.774;2023-04-06T09:26:17;10.70;67.80
20418;DHT22;10368;51.436;6.774;2023-04-06T09:44:12;11.10;67.30
20418;DHT22;10368;51.436;6.774;2023-04-06T10:12:56;11.70;62.40
20418;DHT22;10368;51.436;6.774;2023-04-06T10:15:23;12.00;62.10
20418;DHT22;10368;51.436;6.774;2023-04-06T10:23:09;12.00;61.80
20418;DHT22;10368;51.436;6.774;2023-04-06T10:33:19;12.40;62.30
20418;DHT22;10368;51.436;6.774;2023-04-06T10:35:46;12.70;61.50
20418;DHT22;10368;51.436;6.774;2023-04-06T10:38:13;12.80;61.80
20418;DHT22;10368;51.436;6.774;2023-04-06T10:40:42;13.10;62.20
20418;DHT22;10368;51.436;6.774;2023-04-06T10:43:23;12.90;61.50
20418;DHT22;10368;51.436;6.774;2023-04-06T10:45:57;13.00;62.30
20418;DHT22;10368;51.436;6.774;2023-04-06T10:48:24;12.80;63.00
20418;DHT22;10368;51.436;6.774;2023-04-06T10:50:53;13.00;63.30
20418;DHT22;10368;51.436;6.774;2023-04-06T10:53:22;12.80;64.00
20418;DHT22;10368;51.436;6.774;2023-04-06T10:55:50;12.90;63.80
20418;DHT22;10368;51.436;6.774;2023-04-06T10:58:18;12.70;63.80
20418;DHT22;10368;51.436;6.774;2023-04-06T11:00:49;12.70;62.50
20418;DHT22;10368;51.436;6.774;2023-04-06T11:03:18;12.60;63.50
20418;DHT22;10368;51.436;6.774;2023-04-06T11:05:46;12.60;63.50
20418;DHT22;10368;51.436;6.774;2023-04-06T11:10:49;12.80;64.60
20418;DHT22;10368;51.436;6.774;2023-04-06T11:13:17;12.60;65.70
20418;DHT22;10368;51.436;6.774;2023-04-06T11:15:44;12.70;65.50
20418;DHT22;10368;51.436;6.774;2023-04-06T11:18:11;12.80;65.00
20418;DHT22;10368;51.436;6.774;2023-04-06T11:20:38;12.90;64.90
20418;DHT22;10368;51.436;6.774;2023-04-06T11:23:05;12.80;64.90
20418;DHT22;10368;51.436;6.774;2023-04-06T11:25:32;12.90;65.70
20418;DHT22;10368;51.436;6.774;2023-04-06T11:27:59;12.90;65.20
20418;DHT22;10368;51.436;6.774;2023-04-06T11:30:26;12.90;65.50
20418;DHT22;10368;51.436;6.774;2023-04-06T11:33:01;12.90;66.50
20418;DHT22;10368;51.436;6.774;2023-04-06T11:35:31;13.00;66.90
20418;DHT22;10368;51.436;6.774;2023-04-06T11:37:58;13.00;67.00
20418;DHT22;10368;51.436;6.774;2023-04-06T11:40:26;12.90;67.70
20418;DHT22;10368;51.436;6.774;2023-04-06T11:42:55;13.00;68.00
20418;DHT22;10368;51.436;6.774;2023-04-06T11:45:22;12.70;69.20
20418;DHT22;10368;51.436;6.774;2023-04-06T11:47:57;12.70;69.70
20418;DHT22;10368;51.436;6.774;2023-04-06T11:50:31;12.50;71.00
20418;DHT22;10368;51.436;6.774;2023-04-06T11:53:01;12.30;72.00
20418;DHT22;10368;51.436;6.774;2023-04-06T11:55:37;12.30;73.20
20418;DHT22;10368;51.436;6.774;2023-04-06T11:58:04;12.40;73.60
20418;DHT22;10368;51.436;6.774;2023-04-06T12:00:31;12.30;74.10
20418;DHT22;10368;51.436;6.774;2023-04-06T12:03:01;12.50;73.90
20418;DHT22;10368;51.436;6.774;2023-04-06T12:05:28;12.60;73.00
20418;DHT22;10368;51.436;6.774;2023-04-06T12:07:55;12.80;72.10
20418;DHT22;10368;51.436;6.774;2023-04-06T12:10:24;12.80;71.70
20418;DHT22;10368;51.436;6.774;2023-04-06T12:12:51;12.80;71.00
20418;DHT22;10368;51.436;6.774;2023-04-06T12:15:18;12.90;70.90
20418;DHT22;10368;51.436;6.774;2023-04-06T12:17:45;12.90;70.20
20418;DHT22;10368;51.436;6.774;2023-04-06T12:20:12;13.00;69.60
20418;DHT22;10368;51.436;6.774;2023-04-06T12:22:52;12.70;69.40
20418;DHT22;10368;51.436;6.774;2023-04-06T12:25:19;13.00;69.10
20418;DHT22;10368;51.436;6.774;2023-04-06T12:27:46;12.90;69.20
20418;DHT22;10368;51.436;6.774;2023-04-06T12:30:14;13.00;69.00
20418;DHT22;10368;51.436;6.774;2023-04-06T12:32:41;13.30;69.70
